Time;durP1;ratioP1;P1;durP2;ratioP2;P2;SDS_P1;SDS_P2;PMS_P1;PMS_P2;Temp;Humidity;BMP_temperature;BMP_pressure;BME280_temperature;BME280_humidity;BME280_pressure;Samples;Min_cycle;Max_cycle;Signal;HPM_P1;HPM_P2
2022/06/04 00:00:56;;;;;;;6.13;2.63;;;15.60;93.20;;;;;;5103584;28;20049;-69
2022/06/04 00:03:23;;;;;;;4.15;2.60;;;15.50;92.90;;;;;;5104235;28;20063;-69
2022/06/04 00:05:51;;;;;;;5.13;2.47;;;15.50;92.80;;;;;;5085800;28;20050;-69
2022/06/04 00:08:18;;;;;;;5.38;2.22;;;15.50;92.90;;;;;;5090456;28;20324;-70
2022/06/04 00:16:22;;;;;;;5.28;2.33;;;15.40;93.00;;;;;;5066333;28;20100;-70
2022/06/04 00:18:48;;;;;;;10.35;2.88;;;15.30;93.00;;;;;;5065427;28;20032;-70
2022/06/04 00:21:14;;;;;;;4.10;2.10;;;15.30;93.20;;;;;;5083747;28;20035;-69
2022/06/04 00:23:41;;;;;;;4.03;2.53;;;15.30;93.30;;;;;;5066239;28;20123;-69
2022/06/04 00:26:08;;;;;;;7.22;2.35;;;15.30;93.50;;;;;;5086969;28;20050;-68
2022/06/04 00:28:35;;;;;;;4.85;2.40;;;15.20;93.50;;;;;;5102229;28;20024;-68
2022/06/04 00:31:01;;;;;;;7.20;2.90;;;15.20;93.60;;;;;;5102356;28;20118;-68
2022/06/04 00:33:27;;;;;;;5.95;2.90;;;15.20;93.60;;;;;;5102491;28;20031;-68
2022/06/04 00:35:55;;;;;;;7.63;2.75;;;15.10;93.60;;;;;;5104103;28;20024;-68
2022/06/04 00:38:24;;;;;;;5.93;2.40;;;15.10;93.70;;;;;;5102726;28;20016;-70
2022/06/04 00:41:06;;;;;;;11.32;2.67;;;15.10;93.70;;;;;;5085615;28;20104;-67
2022/06/04 00:44:03;;;;;;;3.08;2.65;;;15.10;93.80;;;;;;5103199;28;20020;-70
2022/06/04 00:47:04;;;;;;;6.93;3.00;;;15.00;93.90;;;;;;5103761;28;20008;-69
2022/06/04 00:49:30;;;;;;;7.70;3.00;;;15.00;93.90;;;;;;5074150;28;20020;-69
2022/06/04 00:51:57;;;;;;;11.05;2.70;;;15.00;93.90;;;;;;5103496;28;20234;-69
2022/06/04 00:54:23;;;;;;;4.68;2.70;;;14.90;93.90;;;;;;5101986;28;20093;-68
2022/06/04 00:57:29;;;;;;;5.15;2.97;;;14.80;93.80;;;;;;5103600;28;20033;-68
2022/06/04 01:00:10;;;;;;;4.18;2.13;;;14.80;93.80;;;;;;5102435;28;20061;-68
2022/06/04 01:03:16;;;;;;;3.13;2.47;;;14.80;94.00;;;;;;5101924;28;20047;-68
2022/06/04 01:06:09;;;;;;;7.65;2.45;;;14.80;93.90;;;;;;5102003;28;20334;-69
2022/06/04 01:09:14;;;;;;;6.63;2.17;;;14.80;93.70;;;;;;5088709;28;20079;-69
2022/06/04 01:12:11;;;;;;;9.43;2.45;;;14.70;93.50;;;;;;5081573;28;20028;-69
2022/06/04 01:15:16;;;;;;;5.20;2.00;;;14.70;93.50;;;;;;5080999;28;20035;-69
2022/06/04 01:18:09;;;;;;;5.43;2.35;;;14.60;93.30;;;;;;5080815;28;20024;-69
2022/06/04 01:20:46;;;;;;;4.25;1.85;;;14.60;93.30;;;;;;5080824;28;20035;-69
2022/06/04 01:23:49;;;;;;;7.30;1.83;;;14.60;93.20;;;;;;5081673;28;20043;-68
2022/06/04 01:26:29;;;;;;;;;;;14.60;92.80;;;;;;5076465;28;20016;-69
2022/06/04 01:29:02;;;;;;;12.25;2.38;;;14.50;93.00;;;;;;5101371;28;19908;-69
2022/06/04 01:31:37;;;;;;;7.53;2.05;;;14.50;92.80;;;;;;5101367;28;20099;-69
2022/06/04 01:34:07;;;;;;;5.85;1.83;;;14.40;92.60;;;;;;5085370;28;20035;-69
2022/06/04 01:36:45;;;;;;;4.57;1.80;;;14.40;92.70;;;;;;5101978;28;20024;-69
2022/06/04 01:39:17;;;;;;;2.40;1.70;;;14.40;92.50;;;;;;5102127;28;20031;-69
2022/06/04 01:41:56;;;;;;;3.10;1.73;;;14.40;92.40;;;;;;5101203;28;20076;-69
2022/06/04 01:44:32;;;;;;;5.03;1.80;;;14.40;92.40;;;;;;5101518;28;20028;-69
2022/06/04 01:47:04;;;;;;;6.90;2.00;;;14.40;92.50;;;;;;5102438;28;20027;-68
2022/06/04 01:49:37;;;;;;;8.30;1.60;;;14.30;92.40;;;;;;5101168;28;20050;-69
2022/06/04 01:52:10;;;;;;;6.65;1.90;;;14.30;92.30;;;;;;5102241;28;20024;-69
2022/06/04 01:54:40;;;;;;;5.30;1.73;;;14.30;92.60;;;;;;5101412;28;20048;-69
2022/06/04 01:57:16;;;;;;;3.88;1.60;;;14.30;92.30;;;;;;5103152;28;20040;-69
2022/06/04 01:59:47;;;;;;;4.15;1.40;;;14.30;92.20;;;;;;5101108;28;20069;-69
2022/06/04 02:02:18;;;;;;;5.32;1.70;;;14.30;92.20;;;;;;5102001;28;20016;-69
2022/06/04 02:04:50;;;;;;;4.40;1.50;;;14.30;92.20;;;;;;5101913;28;20185;-69
2022/06/04 02:07:30;;;;;;;2.70;1.40;;;14.20;92.30;;;;;;5099705;28;20091;-69
2022/06/04 02:10:13;;;;;;;3.47;1.23;;;14.10;92.30;;;;;;5081443;28;20047;-69
2022/06/04 02:12:41;;;;;;;5.05;1.70;;;14.10;92.30;;;;;;5082608;28;20021;-68
2022/06/04 02:15:12;;;;;;;3.35;1.40;;;14.10;92.50;;;;;;5082599;28;20311;-69
2022/06/04 02:17:40;;;;;;;6.28;1.83;;;14.00;92.50;;;;;;5079493;28;20044;-69
2022/06/04 02:20:07;;;;;;;3.88;1.50;;;14.00;92.60;;;;;;5081250;28;20029;-69
2022/06/04 02:22:34;;;;;;;4.35;1.40;;;14.00;92.60;;;;;;5080625;28;20032;-68
2022/06/04 02:25:01;;;;;;;4.25;1.50;;;13.90;92.70;;;;;;5081852;28;20070;-68
2022/06/04 02:27:28;;;;;;;6.55;1.58;;;13.90;92.90;;;;;;5114903;28;20030;-69
2022/06/04 02:29:54;;;;;;;5.65;1.50;;;13.90;92.90;;;;;;5087515;28;20333;-68
2022/06/04 02:32:33;;;;;;;3.65;1.52;;;13.90;93.00;;;;;;5122374;28;20027;-69
2022/06/04 02:35:30;;;;;;;5.40;1.70;;;13.90;93.10;;;;;;5122031;28;20032;-68
2022/06/04 02:38:36;;;;;;;5.43;1.92;;;13.90;93.30;;;;;;5122050;28;20023;-69
2022/06/04 02:41:09;;;;;;;7.60;2.00;;;13.80;93.50;;;;;;5112925;28;20020;-69
2022/06/04 02:43:45;;;;;;;5.15;2.22;;;13.90;93.60;;;;;;5126460;28;20026;-69
2022/06/04 02:46:39;;;;;;;4.63;1.90;;;13.90;93.50;;;;;;5122050;28;20295;-69
2022/06/04 02:49:14;;;;;;;2.75;1.70;;;13.90;93.80;;;;;;5092156;28;20215;-68
2022/06/04 02:51:44;;;;;;;6.28;1.98;;;13.90;93.90;;;;;;5105566;28;20065;-69
2022/06/04 02:54:15;;;;;;;6.43;2.10;;;13.90;94.00;;;;;;5105420;28;20036;-69
2022/06/04 02:56:43;;;;;;;3.47;1.90;;;13.90;94.00;;;;;;5085199;28;20055;-69
2022/06/04 02:59:12;;;;;;;3.72;1.85;;;13.90;94.10;;;;;;5084931;28;20257;-69
2022/06/04 03:01:42;;;;;;;4.38;1.95;;;13.80;94.30;;;;;;5085272;28;20023;-69
2022/06/04 03:04:08;;;;;;;5.70;2.13;;;13.80;94.60;;;;;;5083853;28;20101;-69
2022/06/04 03:06:35;;;;;;;5.90;2.03;;;13.80;94.70;;;;;;5085628;28;20032;-69
2022/06/04 03:09:03;;;;;;;4.43;2.22;;;13.80;94.80;;;;;;5100948;28;20030;-69
2022/06/04 03:11:29;;;;;;;4.35;2.33;;;13.70;94.90;;;;;;5087223;28;20030;-69
2022/06/04 03:13:55;;;;;;;6.22;2.58;;;13.70;95.20;;;;;;5105513;28;20323;-69
2022/06/04 03:16:21;;;;;;;6.55;2.35;;;13.70;95.40;;;;;;5104031;28;20301;-69
2022/06/04 03:18:47;;;;;;;6.47;2.60;;;13.70;95.50;;;;;;5103252;28;20016;-69
2022/06/04 03:21:13;;;;;;;9.68;3.15;;;13.70;95.60;;;;;;5104449;28;20020;-69
2022/06/04 03:23:39;;;;;;;6.60;3.00;;;13.70;95.90;;;;;;5102925;28;20219;-68
2022/06/04 03:26:04;;;;;;;9.15;3.10;;;13.60;96.10;;;;;;5108478;28;20062;-69
2022/06/04 03:28:30;;;;;;;10.07;4.20;;;13.60;96.20;;;;;;5125724;28;20087;-69
2022/06/04 03:30:56;;;;;;;7.28;3.20;;;13.60;96.30;;;;;;5123742;28;20015;-69
2022/06/04 03:33:22;;;;;;;10.07;3.38;;;13.60;96.50;;;;;;5124288;28;20031;-68
2022/06/04 03:35:48;;;;;;;7.90;3.28;;;13.60;96.70;;;;;;5125170;28;20020;-69
2022/06/04 03:38:14;;;;;;;10.60;3.13;;;13.50;96.80;;;;;;5125189;28;20057;-68
2022/06/04 03:40:40;;;;;;;8.07;3.03;;;13.50;97.00;;;;;;5125093;28;20258;-69
2022/06/04 03:43:05;;;;;;;7.00;3.40;;;13.50;97.20;;;;;;5125383;28;20310;-69
2022/06/04 03:45:31;;;;;;;5.63;3.05;;;13.50;97.30;;;;;;5124486;28;20222;-69
2022/06/04 03:47:58;;;;;;;7.55;3.30;;;13.50;97.40;;;;;;5104950;28;20088;-69
2022/06/04 03:50:25;;;;;;;8.27;3.35;;;13.50;97.50;;;;;;5103126;28;20252;-69
2022/06/04 03:52:51;;;;;;;9.80;3.20;;;13.40;97.60;;;;;;5103494;28;20115;-69
2022/06/04 03:55:18;;;;;;;6.65;3.47;;;13.40;97.70;;;;;;5104341;28;20024;-69
2022/06/04 03:57:54;;;;;;;6.22;3.47;;;13.40;97.80;;;;;;5066484;28;20030;-69
2022/06/04 04:00:39;;;;;;;10.10;3.42;;;13.40;98.00;;;;;;5067626;28;20062;-69
2022/06/04 04:03:14;;;;;;;7.10;3.45;;;13.40;98.10;;;;;;5083308;28;20498;-69
2022/06/04 04:05:46;;;;;;;7.78;3.45;;;13.30;98.30;;;;;;5067724;28;20021;-69
2022/06/04 04:08:12;;;;;;;10.45;4.47;;;13.20;98.50;;;;;;5073848;28;20032;-69
2022/06/04 04:10:40;;;;;;;6.50;3.60;;;13.20;99.00;;;;;;5082246;28;20031;-69
2022/06/04 04:13:06;;;;;;;12.88;4.00;;;13.20;99.00;;;;;;5066022;28;20025;-69
2022/06/04 04:15:32;;;;;;;9.48;4.07;;;13.20;99.80;;;;;;5083205;28;20369;-69
2022/06/04 04:17:58;;;;;;;8.35;4.10;;;13.20;99.90;;;;;;5065684;28;20020;-69
2022/06/04 04:20:29;;;;;;;10.07;4.55;;;13.20;99.90;;;;;;5082518;28;20059;-69
2022/06/04 04:22:56;;;;;;;8.50;4.63;;;13.10;99.90;;;;;;5081677;28;20066;-69
2022/06/04 04:25:24;;;;;;;10.38;4.97;;;13.00;99.90;;;;;;5082375;28;20035;-69
2022/06/04 04:27:50;;;;;;;10.15;5.00;;;12.90;99.90;;;;;;5104581;28;20030;-69
2022/06/04 04:30:19;;;;;;;12.77;5.03;;;12.80;99.90;;;;;;5106825;28;20065;-69
2022/06/04 04:32:45;;;;;;;14.32;5.30;;;12.80;99.90;;;;;;5122850;28;20023;-69
2022/06/04 04:35:16;;;;;;;6.50;5.00;;;12.70;99.90;;;;;;5124312;28;20045;-69
2022/06/04 04:37:42;;;;;;;12.60;5.90;;;12.60;99.90;;;;;;5123076;28;20012;-69
2022/06/04 04:40:10;;;;;;;11.15;6.40;;;12.60;99.90;;;;;;5123433;28;20023;-69
2022/06/04 04:42:35;;;;;;;9.38;6.07;;;12.50;99.90;;;;;;5123169;28;20030;-69
2022/06/04 04:45:02;;;;;;;12.88;6.72;;;12.40;99.90;;;;;;5123128;28;20055;-69
2022/06/04 04:47:27;;;;;;;11.85;6.65;;;12.40;99.90;;;;;;5108490;28;20027;-69
2022/06/04 04:49:53;;;;;;;13.57;6.65;;;12.30;99.90;;;;;;5085488;28;20079;-69
2022/06/04 04:52:19;;;;;;;9.73;5.80;;;12.30;99.90;;;;;;5102169;28;20025;-69
2022/06/04 04:54:45;;;;;;;14.98;6.82;;;12.30;99.90;;;;;;5103623;28;20070;-69
2022/06/04 04:57:10;;;;;;;15.73;6.70;;;12.30;99.90;;;;;;5102684;28;20228;-69
2022/06/04 04:59:36;;;;;;;8.90;6.82;;;12.30;99.90;;;;;;5103746;28;20051;-69
2022/06/04 05:02:02;;;;;;;10.18;6.25;;;12.30;99.90;;;;;;5102282;28;20053;-69
2022/06/04 05:04:28;;;;;;;13.85;7.13;;;12.40;99.90;;;;;;5103046;28;20292;-69
2022/06/04 05:06:54;;;;;;;10.57;6.70;;;12.40;99.90;;;;;;5103877;28;20023;-69
2022/06/04 05:09:19;;;;;;;12.27;6.43;;;12.30;99.90;;;;;;5083835;28;20070;-69
2022/06/04 05:11:45;;;;;;;9.45;6.38;;;12.30;99.90;;;;;;5082017;28;20234;-69
2022/06/04 05:14:11;;;;;;;13.00;6.75;;;12.30;99.90;;;;;;5082741;28;20211;-69
2022/06/04 05:16:39;;;;;;;13.93;6.70;;;12.40;99.90;;;;;;5081810;28;20092;-69
2022/06/04 05:19:05;;;;;;;16.77;6.72;;;12.40;99.90;;;;;;5081746;28;20028;-68
2022/06/04 05:21:47;;;;;;;12.98;7.07;;;12.40;99.90;;;;;;5080394;28;20013;-69
2022/06/04 05:24:16;;;;;;;;;;;12.30;99.90;;;;;;5066390;28;20060;-69
2022/06/04 05:26:41;;;;;;;12.60;6.57;;;12.30;99.90;;;;;;5101496;28;19904;-69
2022/06/04 05:29:07;;;;;;;15.20;7.22;;;12.30;99.90;;;;;;5122339;28;20270;-69
2022/06/04 05:31:33;;;;;;;15.55;6.57;;;12.40;99.90;;;;;;5124010;28;20031;-68
2022/06/04 05:33:59;;;;;;;13.05;6.47;;;12.40;99.90;;;;;;5121808;28;20038;-68
2022/06/04 05:36:24;;;;;;;11.32;6.53;;;12.40;99.90;;;;;;5122439;28;20096;-68
2022/06/04 05:38:50;;;;;;;15.70;6.80;;;12.40;99.90;;;;;;5123740;28;20043;-68
2022/06/04 05:41:16;;;;;;;12.77;6.80;;;12.40;99.90;;;;;;5123032;28;20020;-68
2022/06/04 05:43:42;;;;;;;18.55;7.15;;;12.40;99.90;;;;;;5123504;28;20016;-68
2022/06/04 05:46:11;;;;;;;12.90;6.38;;;12.40;99.90;;;;;;5119533;28;20050;-68
2022/06/04 05:48:38;;;;;;;10.40;6.47;;;12.40;99.90;;;;;;5102032;28;20292;-68
2022/06/04 05:51:05;;;;;;;9.63;6.47;;;12.40;99.90;;;;;;5101854;28;20024;-68
2022/06/04 05:53:30;;;;;;;11.93;6.30;;;12.40;99.90;;;;;;5101135;28;20098;-68
2022/06/04 05:55:56;;;;;;;12.07;6.15;;;12.40;99.90;;;;;;5101581;28;20028;-68
2022/06/04 05:58:22;;;;;;;12.60;6.22;;;12.50;99.90;;;;;;5102313;28;20287;-68
2022/06/04 06:00:48;;;;;;;12.57;6.18;;;12.50;99.90;;;;;;5103098;28;20078;-68
2022/06/04 06:03:13;;;;;;;13.00;5.85;;;12.50;99.90;;;;;;5101293;28;20310;-68
2022/06/04 06:05:42;;;;;;;14.27;6.97;;;12.40;99.90;;;;;;5102654;28;20057;-68
2022/06/04 06:08:08;;;;;;;14.30;6.18;;;12.50;99.90;;;;;;5091944;28;20039;-68
2022/06/04 06:10:38;;;;;;;11.77;5.40;;;12.50;99.90;;;;;;5082084;28;20311;-68
2022/06/04 06:13:05;;;;;;;12.20;6.50;;;12.50;99.90;;;;;;5082733;28;20056;-68
2022/06/04 06:15:30;;;;;;;10.02;5.68;;;12.40;99.90;;;;;;5083742;28;20020;-68
2022/06/04 06:17:56;;;;;;;13.20;6.03;;;12.50;99.90;;;;;;5085796;28;20025;-68
2022/06/04 06:20:21;;;;;;;18.17;5.63;;;12.50;99.90;;;;;;5084448;28;20306;-68
2022/06/04 06:22:47;;;;;;;10.23;5.88;;;12.50;99.90;;;;;;5086681;28;20256;-68
2022/06/04 06:25:13;;;;;;;11.82;5.15;;;12.60;99.90;;;;;;5085186;28;20066;-68
2022/06/04 06:27:39;;;;;;;13.65;5.88;;;12.70;99.90;;;;;;5104217;28;20318;-69
2022/06/04 06:30:06;;;;;;;10.63;5.60;;;12.80;99.90;;;;;;5088819;28;20024;-68
2022/06/04 06:32:31;;;;;;;9.98;5.05;;;12.80;99.90;;;;;;5105569;28;20032;-68
2022/06/04 06:34:57;;;;;;;12.43;5.03;;;12.80;99.90;;;;;;5105061;28;20063;-69
2022/06/04 06:37:23;;;;;;;13.80;5.75;;;12.80;99.90;;;;;;5106540;28;20035;-68
2022/06/04 06:39:48;;;;;;;12.30;5.57;;;12.80;99.90;;;;;;5106473;28;20296;-69
2022/06/04 06:42:14;;;;;;;10.20;5.20;;;12.90;99.90;;;;;;5088600;28;20032;-68
2022/06/04 06:44:40;;;;;;;11.60;5.45;;;12.90;99.90;;;;;;5105120;28;20184;-69
2022/06/04 06:47:07;;;;;;;9.95;4.75;;;12.80;99.90;;;;;;5104921;28;20035;-69
2022/06/04 06:49:33;;;;;;;14.52;5.28;;;12.80;99.90;;;;;;5088340;28;20051;-69
2022/06/04 06:52:01;;;;;;;6.18;5.20;;;12.80;99.90;;;;;;5087497;28;20035;-69
2022/06/04 06:54:31;;;;;;;9.10;4.93;;;12.80;99.90;;;;;;5105378;28;20044;-68
2022/06/04 06:56:57;;;;;;;11.20;5.45;;;12.80;99.90;;;;;;5105628;28;20024;-68
2022/06/04 06:59:25;;;;;;;9.80;5.05;;;12.70;99.90;;;;;;5106071;28;20031;-68
2022/06/04 07:01:51;;;;;;;12.43;5.65;;;12.70;99.90;;;;;;5104905;28;20245;-68
2022/06/04 07:04:18;;;;;;;7.97;4.80;;;12.70;99.90;;;;;;5105085;28;20122;-68
2022/06/04 07:06:47;;;;;;;11.45;4.95;;;12.70;99.90;;;;;;5105699;28;20020;-68
2022/06/04 07:09:16;;;;;;;12.00;4.88;;;12.70;99.90;;;;;;5084316;28;20304;-69
2022/06/04 07:11:43;;;;;;;10.40;5.68;;;12.60;99.90;;;;;;5084434;28;20027;-68
2022/06/04 07:14:10;;;;;;;11.00;5.47;;;12.70;99.90;;;;;;5085605;28;20032;-69
2022/06/04 07:16:36;;;;;;;10.40;5.05;;;12.70;99.90;;;;;;5085279;28;20047;-69
2022/06/04 07:19:02;;;;;;;12.32;5.50;;;12.80;99.90;;;;;;5084529;28;20296;-69
2022/06/04 07:21:29;;;;;;;12.27;5.25;;;12.80;99.90;;;;;;5066664;28;20094;-69
2022/06/04 07:23:55;;;;;;;10.55;5.03;;;12.80;99.90;;;;;;5084088;28;20107;-69
2022/06/04 07:26:21;;;;;;;11.65;5.28;;;12.70;99.90;;;;;;5098622;28;20027;-69
2022/06/04 07:28:47;;;;;;;8.10;4.85;;;12.70;99.90;;;;;;5108201;28;20302;-69
2022/06/04 07:31:15;;;;;;;13.10;5.35;;;12.70;99.90;;;;;;5125019;28;20050;-69
2022/06/04 07:33:42;;;;;;;10.45;5.03;;;12.70;99.90;;;;;;5126122;28;20044;-69
2022/06/04 07:36:14;;;;;;;11.45;5.25;;;12.70;99.90;;;;;;5124432;28;20046;-69
2022/06/04 07:38:39;;;;;;;11.57;5.43;;;12.70;99.90;;;;;;5125056;28;20039;-69
2022/06/04 07:41:05;;;;;;;11.55;5.53;;;12.70;99.90;;;;;;5124389;28;20218;-69
2022/06/04 07:43:30;;;;;;;10.98;4.90;;;12.70;99.90;;;;;;5125642;28;20078;-69
2022/06/04 07:45:56;;;;;;;13.35;5.35;;;12.70;99.90;;;;;;5104517;28;20288;-69
2022/06/04 07:48:22;;;;;;;11.40;5.25;;;12.70;99.90;;;;;;5103972;28;20063;-69
2022/06/04 07:50:48;;;;;;;11.65;5.75;;;12.70;99.90;;;;;;5103022;28;20016;-69
2022/06/04 07:53:14;;;;;;;8.82;4.93;;;12.70;99.90;;;;;;5103407;28;20055;-70
2022/06/04 07:55:42;;;;;;;8.60;5.00;;;12.60;99.90;;;;;;5103995;28;20277;-68
2022/06/04 07:58:08;;;;;;;8.68;4.95;;;12.60;99.90;;;;;;5104770;28;20319;-70
2022/06/04 08:00:38;;;;;;;8.45;5.03;;;12.70;99.90;;;;;;5104100;28;20048;-70
2022/06/04 08:03:06;;;;;;;10.70;4.72;;;12.70;99.90;;;;;;5103373;28;20016;-69
2022/06/04 08:05:31;;;;;;;7.53;4.93;;;12.70;99.90;;;;;;5104087;28;20079;-69
2022/06/04 08:07:57;;;;;;;10.43;4.97;;;12.80;99.90;;;;;;5082941;28;20028;-68
2022/06/04 08:10:23;;;;;;;6.72;4.35;;;12.80;99.90;;;;;;5082739;28;20028;-68
2022/06/04 08:12:50;;;;;;;8.32;5.10;;;12.80;99.90;;;;;;5084717;28;20026;-68
2022/06/04 08:15:16;;;;;;;10.07;4.65;;;12.90;99.90;;;;;;5083616;28;20032;-68
2022/06/04 08:17:42;;;;;;;9.70;4.75;;;12.90;99.90;;;;;;5084600;28;20080;-68
2022/06/04 08:20:08;;;;;;;9.63;4.60;;;12.90;99.90;;;;;;5082886;28;20039;-69
2022/06/04 08:22:34;;;;;;;10.95;4.55;;;12.90;99.90;;;;;;5081772;28;20028;-68
2022/06/04 08:25:00;;;;;;;14.75;4.80;;;13.00;99.90;;;;;;5082434;28;20212;-69
2022/06/04 08:27:26;;;;;;;7.95;4.20;;;13.00;99.90;;;;;;5116272;28;20042;-70
2022/06/04 08:29:51;;;;;;;15.45;5.78;;;13.10;99.90;;;;;;5125010;28;20045;-68
2022/06/04 08:32:18;;;;;;;9.15;4.55;;;13.20;99.90;;;;;;5125211;28;20057;-68
2022/06/04 08:34:43;;;;;;;8.85;4.50;;;13.20;99.90;;;;;;5124591;28;20319;-69
2022/06/04 08:37:09;;;;;;;9.32;4.53;;;13.20;99.90;;;;;;5123925;28;20101;-70
2022/06/04 08:39:36;;;;;;;8.70;4.10;;;13.20;99.90;;;;;;5105601;28;20023;-68
2022/06/04 08:42:16;;;;;;;10.48;5.13;;;13.30;99.90;;;;;;5124165;28;20023;-68
2022/06/04 08:44:50;;;;;;;14.02;4.43;;;13.40;99.90;;;;;;5124675;28;20236;-68
2022/06/04 08:47:21;;;;;;;7.97;4.45;;;13.40;99.90;;;;;;5109597;28;20048;-69
2022/06/04 08:50:08;;;;;;;9.13;4.18;;;13.50;99.90;;;;;;5086401;28;20059;-69
2022/06/04 08:52:40;;;;;;;11.05;4.07;;;13.40;99.90;;;;;;5089024;28;20052;-69
2022/06/04 08:58:27;;;;;;;7.68;3.97;;;13.40;99.90;;;;;;5069911;28;20099;-69
2022/06/04 09:01:25;;;;;;;8.18;4.15;;;13.50;99.90;;;;;;5082315;28;20246;-69
2022/06/04 09:04:31;;;;;;;8.20;4.50;;;13.60;99.90;;;;;;5082182;28;20022;-69
2022/06/04 09:07:24;;;;;;;7.72;4.20;;;13.60;99.80;;;;;;5057455;28;20088;-69
2022/06/04 09:10:01;;;;;;;11.88;3.85;;;13.70;99.90;;;;;;5089215;28;20024;-69
2022/06/04 09:12:50;;;;;;;7.18;4.10;;;13.80;99.90;;;;;;5103099;28;20342;-69
2022/06/04 09:15:22;;;;;;;9.35;4.72;;;13.90;99.30;;;;;;5102379;28;20035;-69
2022/06/04 09:17:52;;;;;;;9.65;4.30;;;13.80;99.70;;;;;;5102812;28;20016;-69
2022/06/04 09:20:40;;;;;;;7.75;3.80;;;13.80;99.50;;;;;;5102070;28;20211;-70
2022/06/04 09:23:39;;;;;;;10.07;3.95;;;13.80;99.80;;;;;;5087115;28;20012;-70
2022/06/04 09:26:31;;;;;;;9.23;4.13;;;13.70;99.80;;;;;;5107180;28;20023;-69
2022/06/04 09:29:13;;;;;;;11.88;3.92;;;13.70;99.70;;;;;;5123333;28;20034;-70
2022/06/04 09:32:03;;;;;;;13.32;4.10;;;13.60;99.60;;;;;;5124023;28;20027;-69
2022/06/04 09:34:37;;;;;;;9.02;3.75;;;13.70;99.90;;;;;;5122615;28;20040;-69
2022/06/04 09:37:07;;;;;;;9.57;3.95;;;13.70;99.80;;;;;;5122464;28;20092;-69
2022/06/04 09:39:36;;;;;;;9.40;3.90;;;13.70;99.90;;;;;;5122305;28;20031;-70
2022/06/04 09:42:17;;;;;;;9.25;3.40;;;13.80;99.80;;;;;;5123098;28;20038;-70
2022/06/04 09:45:04;;;;;;;11.43;3.30;;;13.90;99.50;;;;;;5123917;28;20202;-69
2022/06/04 09:47:48;;;;;;;11.00;4.00;;;14.00;99.50;;;;;;5076285;28;20020;-67
2022/06/04 09:50:35;;;;;;;16.42;4.63;;;14.30;99.10;;;;;;5106719;28;20023;-68
2022/06/04 09:53:24;;;;;;;8.85;3.08;;;14.50;98.60;;;;;;5091795;28;20039;-68
2022/06/04 09:55:54;;;;;;;7.20;3.20;;;14.70;98.30;;;;;;5106181;28;20274;-69
2022/06/04 09:58:26;;;;;;;10.45;3.85;;;15.00;97.20;;;;;;5106533;28;20016;-69
2022/06/04 10:01:02;;;;;;;9.30;3.60;;;15.10;96.80;;;;;;5105663;28;20299;-69
2022/06/04 10:03:31;;;;;;;10.00;3.92;;;15.00;96.70;;;;;;5089141;28;20211;-68
2022/06/04 10:06:02;;;;;;;8.65;3.47;;;15.00;96.50;;;;;;5106229;28;20020;-69
2022/06/04 10:08:29;;;;;;;7.60;2.90;;;15.00;96.60;;;;;;5092693;28;20035;-69
2022/06/04 10:11:05;;;;;;;8.05;3.22;;;15.10;96.80;;;;;;5086727;28;20028;-70
2022/06/04 10:13:49;;;;;;;7.82;2.97;;;15.30;96.30;;;;;;5085646;28;20182;-68
2022/06/04 10:16:36;;;;;;;5.18;3.60;;;15.40;96.10;;;;;;5070923;28;20189;-69
2022/06/04 10:19:16;;;;;;;8.68;2.95;;;15.50;96.00;;;;;;5071081;28;20031;-69
2022/06/04 10:21:43;;;;;;;9.70;3.42;;;15.40;95.50;;;;;;5085414;28;20055;-68
2022/06/04 10:24:28;;;;;;;8.35;3.20;;;15.20;96.20;;;;;;5083336;28;20044;-70
2022/06/04 10:27:33;;;;;;;8.65;3.10;;;15.20;96.10;;;;;;5096326;28;20307;-70
2022/06/04 10:30:32;;;;;;;11.02;3.15;;;15.10;96.30;;;;;;5105919;28;20043;-71
2022/06/04 10:33:23;;;;;;;11.60;3.33;;;15.00;96.20;;;;;;5105030;28;20027;-69
2022/06/04 10:36:01;;;;;;;8.35;3.50;;;15.10;96.40;;;;;;5087599;28;20020;-71
2022/06/04 10:38:52;;;;;;;8.55;3.38;;;15.10;96.10;;;;;;5106639;28;20056;-69
2022/06/04 10:41:39;;;;;;;12.95;3.90;;;15.10;96.10;;;;;;5104979;28;20318;-69
2022/06/04 10:44:42;;;;;;;11.20;3.75;;;15.20;95.70;;;;;;5104888;28;20131;-69
2022/06/04 10:47:33;;;;;;;8.00;3.47;;;15.10;95.80;;;;;;5104826;28;20180;-69
2022/06/04 10:50:24;;;;;;;7.47;3.13;;;15.10;96.00;;;;;;5104241;28;20027;-69
2022/06/04 10:53:26;;;;;;;5.97;3.13;;;15.10;95.70;;;;;;5105333;28;20059;-69
2022/06/04 10:55:57;;;;;;;12.85;4.72;;;15.10;95.70;;;;;;5104249;28;20035;-69
2022/06/04 10:58:43;;;;;;;9.23;3.10;;;15.00;96.10;;;;;;5088391;28;20065;-70
2022/06/04 11:01:21;;;;;;;8.15;3.47;;;15.30;96.10;;;;;;5104088;28;20038;-70
2022/06/04 11:03:55;;;;;;;7.53;3.00;;;15.60;95.60;;;;;;5104638;28;20073;-70
2022/06/04 11:06:27;;;;;;;9.07;3.20;;;16.00;94.80;;;;;;5106068;28;20058;-69
2022/06/04 11:08:55;;;;;;;;;;;16.40;94.70;;;;;;5088647;28;20035;-69
2022/06/04 11:11:28;;;;;;;13.43;3.47;;;16.80;94.00;;;;;;5084677;28;20192;-69
2022/06/04 11:13:58;;;;;;;9.82;4.03;;;16.90;93.30;;;;;;5083996;28;20322;-70
2022/06/04 11:16:33;;;;;;;9.52;3.15;;;16.90;93.60;;;;;;5085257;28;20020;-70
2022/06/04 11:19:06;;;;;;;6.03;2.70;;;16.80;92.80;;;;;;5085002;28;20051;-70
2022/06/04 11:21:55;;;;;;;10.52;2.95;;;16.60;93.10;;;;;;5085408;28;20024;-70
2022/06/04 11:24:29;;;;;;;6.32;2.70;;;16.50;93.50;;;;;;5082974;28;20016;-70
2022/06/04 11:27:02;;;;;;;9.55;2.95;;;16.60;93.30;;;;;;5107353;28;20218;-70
2022/06/04 11:29:28;;;;;;;4.68;2.65;;;16.80;93.60;;;;;;5125971;28;20210;-69
2022/06/04 11:32:21;;;;;;;7.35;3.05;;;16.90;92.20;;;;;;5125400;28;20095;-71
2022/06/04 11:35:15;;;;;;;7.78;2.97;;;17.10;92.60;;;;;;5109809;28;20035;-70
2022/06/04 11:38:13;;;;;;;7.85;2.78;;;17.20;92.10;;;;;;5095649;28;20184;-69
2022/06/04 11:41:09;;;;;;;6.80;3.00;;;17.00;91.80;;;;;;5124348;28;20038;-69
2022/06/04 11:44:05;;;;;;;7.95;2.35;;;16.90;92.20;;;;;;5124336;28;20020;-69
2022/06/04 11:46:56;;;;;;;7.28;2.95;;;16.70;92.80;;;;;;5102835;28;20030;-70
2022/06/04 11:49:49;;;;;;;5.57;2.95;;;16.60;92.80;;;;;;5089937;28;20031;-69
2022/06/04 11:52:29;;;;;;;7.07;3.03;;;16.80;92.70;;;;;;5089926;28;20229;-69
2022/06/04 11:55:28;;;;;;;5.15;2.72;;;16.90;92.70;;;;;;5104080;28;20319;-69
2022/06/04 11:58:15;;;;;;;10.10;3.25;;;17.20;92.30;;;;;;5068523;28;20020;-70
2022/06/04 12:00:45;;;;;;;3.80;2.53;;;17.40;91.90;;;;;;5083609;28;20031;-70
2022/06/04 12:03:35;;;;;;;8.40;2.95;;;17.50;91.80;;;;;;5083945;28;20043;-69
2022/06/04 12:06:10;;;;;;;6.30;2.40;;;17.50;91.50;;;;;;5083780;28;20029;-69
2022/06/04 12:09:16;;;;;;;10.90;2.67;;;17.50;91.90;;;;;;5092856;28;20025;-68
2022/06/04 12:11:51;;;;;;;8.88;3.10;;;17.60;91.90;;;;;;5096342;28;20021;-69
2022/06/04 12:14:42;;;;;;;6.55;2.95;;;17.60;91.40;;;;;;5083971;28;20091;-69
2022/06/04 12:17:22;;;;;;;7.10;3.00;;;17.50;91.50;;;;;;5097113;28;20027;-69
2022/06/04 12:25:40;;;;;;;10.25;3.10;;;17.50;91.20;;;;;;5095727;28;20029;-70
2022/06/04 12:28:28;;;;;;;8.25;3.13;;;17.20;91.60;;;;;;5085445;28;20024;-68
2022/06/04 12:30:56;;;;;;;7.28;2.97;;;17.00;91.80;;;;;;5102390;28;20054;-69
2022/06/04 12:33:33;;;;;;;6.78;3.40;;;17.00;92.20;;;;;;5102774;28;20047;-69
2022/06/04 12:36:03;;;;;;;6.95;2.72;;;17.30;91.90;;;;;;5103315;28;20028;-69
2022/06/04 12:38:33;;;;;;;7.45;2.67;;;17.80;91.90;;;;;;5102979;28;20016;-69
2022/06/04 12:41:19;;;;;;;8.85;2.67;;;18.20;90.80;;;;;;5101545;28;20028;-69
2022/06/04 12:43:47;;;;;;;7.60;2.88;;;18.60;90.40;;;;;;5102459;28;20047;-70
2022/06/04 12:46:31;;;;;;;6.55;2.75;;;18.40;90.10;;;;;;5103910;28;20008;-70
2022/06/04 12:49:18;;;;;;;6.05;2.83;;;18.40;90.20;;;;;;5102422;28;20231;-70
2022/06/04 12:51:56;;;;;;;4.20;2.70;;;18.10;90.40;;;;;;5102112;28;20046;-70
2022/06/04 12:54:47;;;;;;;4.13;3.17;;;18.10;90.60;;;;;;5053665;28;20047;-70
2022/06/04 12:57:23;;;;;;;9.32;2.85;;;18.20;90.80;;;;;;5102531;28;20047;-69
2022/06/04 12:59:52;;;;;;;5.60;3.00;;;18.40;90.20;;;;;;5085018;28;20032;-69
2022/06/04 13:02:35;;;;;;;9.70;2.80;;;18.20;90.20;;;;;;5102488;28;20016;-70
2022/06/04 13:05:21;;;;;;;8.50;2.97;;;18.10;91.10;;;;;;5086017;28;20026;-69
2022/06/04 13:08:26;;;;;;;5.90;3.13;;;18.00;90.70;;;;;;5083420;28;20047;-70
2022/06/04 13:11:05;;;;;;;4.78;2.85;;;18.10;91.10;;;;;;5070751;28;20024;-70
2022/06/04 13:13:57;;;;;;;12.38;3.80;;;18.30;90.70;;;;;;5082282;28;20020;-70
2022/06/04 13:16:27;;;;;;;7.80;3.33;;;18.40;90.40;;;;;;5082199;28;20296;-69
2022/06/04 13:19:33;;;;;;;4.40;3.00;;;18.20;90.40;;;;;;5081527;28;20073;-70
2022/06/04 13:22:00;;;;;;;7.50;3.10;;;18.10;90.60;;;;;;5070335;28;20024;-69
2022/06/04 13:24:37;;;;;;;7.57;3.30;;;18.10;90.40;;;;;;5082767;28;20044;-70
2022/06/04 13:27:11;;;;;;;9.15;3.95;;;18.10;90.40;;;;;;5092766;28;20023;-70
2022/06/04 13:29:38;;;;;;;8.55;4.10;;;18.10;90.50;;;;;;5085341;28;20051;-70
2022/06/04 13:32:12;;;;;;;6.03;2.92;;;18.20;90.50;;;;;;5103041;28;20027;-71